Time;durP1;ratioP1;P1;durP2;ratioP2;P2;SDS_P1;SDS_P2;PMS_P1;PMS_P2;Temp;Humidity;BMP_temperature;BMP_pressure;BME280_temperature;BME280_humidity;BME280_pressure;Samples;Min_cycle;Max_cycle;Signal;HPM_P1;HPM_P2
2021/08/29 00:01:50;;;;;;;9.00;8.10;;;15.20;99.90;;;;;;5160777;27;20466;-79
2021/08/29 00:04:16;;;;;;;8.43;7.07;;;15.10;99.90;;;;;;5160719;27;20863;-79
2021/08/29 00:06:43;;;;;;;7.97;7.10;;;15.20;99.90;;;;;;5159982;27;20509;-79
2021/08/29 00:09:10;;;;;;;12.00;9.70;;;15.20;99.90;;;;;;5159873;27;20465;-79
2021/08/29 00:11:38;;;;;;;8.53;7.00;;;15.20;99.90;;;;;;5159284;27;20509;-79
2021/08/29 00:14:05;;;;;;;11.30;8.20;;;15.20;99.90;;;;;;5161568;27;20438;-78
2021/08/29 00:16:31;;;;;;;9.17;8.23;;;15.20;99.90;;;;;;5166286;27;20448;-78
2021/08/29 00:18:58;;;;;;;8.40;7.50;;;15.20;99.90;;;;;;5161241;27;20477;-79
2021/08/29 00:21:25;;;;;;;7.70;6.90;;;15.20;99.90;;;;;;5158674;27;21003;-79
2021/08/29 00:23:51;;;;;;;7.40;6.63;;;15.20;99.90;;;;;;5159938;27;20848;-79
2021/08/29 00:26:18;;;;;;;8.00;6.53;;;15.10;99.90;;;;;;5158985;27;20512;-79
2021/08/29 00:28:46;;;;;;;6.30;5.70;;;15.10;99.90;;;;;;5165454;27;20419;-78
2021/08/29 00:31:13;;;;;;;9.83;5.40;;;15.10;99.90;;;;;;5169676;27;20830;-77
2021/08/29 00:33:39;;;;;;;7.73;5.77;;;15.10;99.90;;;;;;5169364;27;20447;-78
2021/08/29 00:36:06;;;;;;;6.30;5.33;;;15.10;99.90;;;;;;5170374;27;20442;-78
2021/08/29 00:38:32;;;;;;;6.57;5.97;;;15.10;99.90;;;;;;5169669;27;20438;-78
2021/08/29 00:40:59;;;;;;;6.20;5.60;;;15.10;99.90;;;;;;5170210;27;20545;-78
2021/08/29 00:43:26;;;;;;;7.07;6.50;;;15.20;99.90;;;;;;5169452;27;20446;-78
2021/08/29 00:45:54;;;;;;;7.07;5.77;;;15.20;99.90;;;;;;5169726;27;20433;-78
2021/08/29 00:48:21;;;;;;;7.00;6.30;;;15.20;99.90;;;;;;5168062;27;20809;-79
2021/08/29 00:50:49;;;;;;;6.93;6.23;;;15.20;99.90;;;;;;5160657;27;20470;-78
2021/08/29 00:53:17;;;;;;;7.00;6.17;;;15.20;99.90;;;;;;5158741;27;20504;-79
2021/08/29 00:55:43;;;;;;;8.17;7.37;;;15.20;99.90;;;;;;5159131;27;20446;-79
2021/08/29 00:58:10;;;;;;;7.23;6.50;;;15.20;99.90;;;;;;5158673;27;20940;-79
2021/08/29 01:00:40;;;;;;;8.17;6.77;;;15.20;99.90;;;;;;5158107;27;20473;-79
2021/08/29 01:03:13;;;;;;;7.37;6.63;;;15.20;99.90;;;;;;5157916;27;20470;-79
2021/08/29 01:05:45;;;;;;;7.97;6.60;;;15.30;99.90;;;;;;5158267;27;20465;-78
2021/08/29 01:08:16;;;;;;;7.70;7.00;;;15.30;99.90;;;;;;5157366;27;20959;-79
2021/08/29 01:10:45;;;;;;;8.17;7.33;;;15.20;99.90;;;;;;5157894;27;20496;-79
2021/08/29 01:13:14;;;;;;;8.53;7.30;;;15.20;99.90;;;;;;5157145;27;20561;-79
2021/08/29 01:15:43;;;;;;;7.07;6.37;;;15.20;99.90;;;;;;5157498;27;20477;-79
2021/08/29 01:18:12;;;;;;;8.20;6.30;;;15.20;99.90;;;;;;5157740;27;20863;-79
2021/08/29 01:20:46;;;;;;;7.43;6.63;;;15.20;99.90;;;;;;5158239;27;20484;-79
2021/08/29 01:23:14;;;;;;;7.70;6.20;;;15.30;99.90;;;;;;5157638;27;20493;-79
2021/08/29 01:25:48;;;;;;;7.93;7.07;;;15.30;99.90;;;;;;5158355;27;20473;-79
2021/08/29 01:28:17;;;;;;;8.63;7.47;;;15.20;99.90;;;;;;5159516;27;20491;-79
2021/08/29 01:30:46;;;;;;;7.47;6.77;;;15.20;99.90;;;;;;5158373;27;20454;-79
2021/08/29 01:33:14;;;;;;;7.70;6.93;;;15.20;99.90;;;;;;5157770;27;20497;-79
2021/08/29 01:35:42;;;;;;;6.63;5.97;;;15.30;99.90;;;;;;5158230;27;20481;-78
2021/08/29 01:38:10;;;;;;;6.47;5.87;;;15.30;99.90;;;;;;5158205;27;20806;-79
2021/08/29 01:40:37;;;;;;;6.77;6.17;;;15.30;99.90;;;;;;5158797;27;20928;-79
2021/08/29 01:43:05;;;;;;;10.87;6.40;;;15.30;99.90;;;;;;5157232;27;20497;-79
2021/08/29 01:45:33;;;;;;;6.90;6.30;;;15.30;99.90;;;;;;5157495;27;20535;-78
2021/08/29 01:48:01;;;;;;;6.63;6.00;;;15.30;99.90;;;;;;5157422;27;20541;-79
2021/08/29 01:50:28;;;;;;;6.83;6.10;;;15.30;99.90;;;;;;5157095;27;20821;-79
2021/08/29 01:52:55;;;;;;;7.00;6.37;;;15.30;99.90;;;;;;5157270;27;20599;-79
2021/08/29 01:55:21;;;;;;;6.63;5.83;;;15.20;99.90;;;;;;5157393;27;20975;-79
2021/08/29 01:57:48;;;;;;;6.83;6.10;;;15.30;99.90;;;;;;5156985;27;20497;-79
2021/08/29 02:00:15;;;;;;;8.40;7.30;;;15.30;99.90;;;;;;5156712;27;20473;-79
2021/08/29 02:02:43;;;;;;;9.37;7.30;;;15.30;99.90;;;;;;5156844;27;20497;-77
2021/08/29 02:05:12;;;;;;;7.67;6.73;;;15.20;99.90;;;;;;5156324;27;20498;-79
2021/08/29 02:07:42;;;;;;;7.47;6.33;;;15.20;99.90;;;;;;5156445;27;20478;-78
2021/08/29 02:10:11;;;;;;;7.60;6.50;;;15.20;99.90;;;;;;5156436;27;20426;-79
2021/08/29 02:12:42;;;;;;;7.90;7.10;;;15.20;99.90;;;;;;5155732;27;20473;-79
2021/08/29 02:15:15;;;;;;;8.23;6.20;;;15.20;99.90;;;;;;5155992;27;20931;-79
2021/08/29 02:17:42;;;;;;;6.30;5.70;;;15.20;99.90;;;;;;5156735;27;20414;-79
2021/08/29 02:20:16;;;;;;;6.33;5.73;;;15.20;99.90;;;;;;5156370;27;20857;-79
2021/08/29 02:22:44;;;;;;;6.60;6.00;;;15.20;99.90;;;;;;5156390;27;20520;-79
2021/08/29 02:25:11;;;;;;;6.00;5.40;;;15.20;99.90;;;;;;5160254;27;20469;-78
2021/08/29 02:27:39;;;;;;;6.50;5.90;;;15.20;99.90;;;;;;5159052;27;20505;-79
2021/08/29 02:30:07;;;;;;;6.80;5.50;;;15.30;99.90;;;;;;5156651;27;20445;-79
2021/08/29 02:32:36;;;;;;;6.57;5.57;;;15.30;99.90;;;;;;5156875;27;20469;-79
2021/08/29 02:35:04;;;;;;;6.40;5.80;;;15.30;99.90;;;;;;5156535;27;20473;-79
2021/08/29 02:37:32;;;;;;;8.80;6.23;;;15.30;99.90;;;;;;5156375;27;20560;-79
2021/08/29 02:40:00;;;;;;;6.27;5.67;;;15.20;99.90;;;;;;5158020;27;20473;-77
2021/08/29 02:42:28;;;;;;;5.60;5.10;;;15.20;99.90;;;;;;5156581;27;20514;-79
2021/08/29 02:44:55;;;;;;;5.23;4.80;;;15.20;99.90;;;;;;5155865;27;20959;-79
2021/08/29 02:47:22;;;;;;;5.43;4.87;;;15.20;99.90;;;;;;5155981;27;20469;-79
2021/08/29 02:49:51;;;;;;;5.43;4.50;;;15.20;99.90;;;;;;5156937;27;20481;-79
2021/08/29 02:52:19;;;;;;;5.90;5.40;;;15.20;99.90;;;;;;5155817;27;20810;-79
2021/08/29 02:54:49;;;;;;;6.80;5.97;;;15.20;99.90;;;;;;5156264;27;20883;-78
2021/08/29 02:57:16;;;;;;;5.60;5.10;;;15.20;99.90;;;;;;5155771;27;20437;-79
2021/08/29 02:59:43;;;;;;;5.80;5.23;;;15.20;99.90;;;;;;5155719;27;20441;-76
2021/08/29 03:02:12;;;;;;;5.73;5.13;;;15.20;99.90;;;;;;5159345;27;20537;-78
2021/08/29 03:04:39;;;;;;;5.77;5.27;;;15.20;99.90;;;;;;5160303;27;20473;-79
2021/08/29 03:07:06;;;;;;;7.33;6.30;;;15.20;99.90;;;;;;5161299;27;20516;-78
2021/08/29 03:09:34;;;;;;;5.43;4.93;;;15.20;99.90;;;;;;5165835;27;20449;-78
2021/08/29 03:12:04;;;;;;;5.00;4.60;;;15.30;99.90;;;;;;5185669;22;20486;-78
2021/08/29 03:14:32;;;;;;;5.03;4.53;;;15.30;99.90;;;;;;5146868;27;20817;-78
2021/08/29 03:17:00;;;;;;;5.20;4.70;;;15.30;99.90;;;;;;5146253;27;20435;-78
2021/08/29 03:19:27;;;;;;;5.43;4.83;;;15.30;99.90;;;;;;5145846;27;20434;-78
2021/08/29 03:21:54;;;;;;;5.23;4.73;;;15.20;99.90;;;;;;5146183;27;20523;-79
2021/08/29 03:24:21;;;;;;;5.43;4.83;;;15.30;99.90;;;;;;5144835;27;20470;-80
2021/08/29 03:26:48;;;;;;;5.00;4.30;;;15.20;99.90;;;;;;5148900;27;20442;-78
2021/08/29 03:29:16;;;;;;;4.67;4.27;;;15.10;99.90;;;;;;5152707;27;20438;-78
2021/08/29 03:31:44;;;;;;;4.60;3.97;;;15.00;99.90;;;;;;5153667;27;20454;-78
2021/08/29 03:34:14;;;;;;;4.07;3.67;;;15.00;99.90;;;;;;5151838;27;20437;-78
2021/08/29 03:36:43;;;;;;;2.97;2.77;;;15.00;99.90;;;;;;5145230;27;20445;-78
2021/08/29 03:39:11;;;;;;;3.47;3.17;;;15.00;99.90;;;;;;5146280;27;20439;-78
2021/08/29 03:41:39;;;;;;;3.30;3.07;;;15.00;99.90;;;;;;5145452;27;20493;-78
2021/08/29 03:44:07;;;;;;;5.00;4.00;;;15.00;99.90;;;;;;5145260;27;20487;-78
2021/08/29 03:46:35;;;;;;;4.10;3.53;;;14.90;99.90;;;;;;5149301;27;20446;-78
2021/08/29 03:49:02;;;;;;;4.03;3.63;;;15.00;99.90;;;;;;5149894;27;20945;-78
2021/08/29 03:51:29;;;;;;;5.50;3.70;;;14.80;99.90;;;;;;5149942;27;20446;-78
2021/08/29 03:53:56;;;;;;;3.23;3.00;;;14.90;99.90;;;;;;5143660;27;20485;-78
2021/08/29 03:56:25;;;;;;;3.47;3.27;;;14.90;99.90;;;;;;5140807;27;20475;-78
2021/08/29 03:58:52;;;;;;;3.23;2.93;;;15.00;99.90;;;;;;5139453;27;20470;-78
2021/08/29 04:01:19;;;;;;;4.00;3.60;;;15.20;99.90;;;;;;5140519;27;20492;-77
2021/08/29 04:03:47;;;;;;;3.57;3.27;;;15.00;99.90;;;;;;5140261;27;20442;-78
2021/08/29 04:06:14;;;;;;;4.53;3.63;;;15.00;99.90;;;;;;5139726;27;20478;-77
2021/08/29 04:08:46;;;;;;;3.13;2.83;;;15.00;99.90;;;;;;5139154;27;20505;-77
2021/08/29 04:11:14;;;;;;;6.40;3.60;;;15.20;99.90;;;;;;5139152;27;20449;-78
2021/08/29 04:13:43;;;;;;;3.53;3.23;;;15.00;99.90;;;;;;5138124;27;20916;-77
2021/08/29 04:16:10;;;;;;;3.37;3.07;;;15.10;99.90;;;;;;5139867;27;20446;-77
2021/08/29 04:18:41;;;;;;;3.27;2.97;;;15.10;99.90;;;;;;5138977;27;20470;-77
2021/08/29 04:21:10;;;;;;;3.67;3.37;;;15.10;99.90;;;;;;5138896;27;20499;-78
2021/08/29 04:23:37;;;;;;;3.27;3.00;;;15.10;99.90;;;;;;5139104;27;20488;-79
2021/08/29 04:26:05;;;;;;;3.87;3.27;;;15.10;99.90;;;;;;5139318;27;20418;-77
2021/08/29 04:28:32;;;;;;;4.27;3.57;;;15.10;99.90;;;;;;5138394;27;20478;-79
2021/08/29 04:31:01;;;;;;;3.60;3.30;;;15.10;99.90;;;;;;5137399;27;20485;-78
2021/08/29 04:33:28;;;;;;;3.53;3.23;;;15.10;99.90;;;;;;5142045;27;20519;-76
2021/08/29 04:35:54;;;;;;;3.03;2.80;;;15.10;99.90;;;;;;5154096;27;20464;-77
2021/08/29 04:38:22;;;;;;;3.00;2.70;;;15.00;99.90;;;;;;5155385;27;20791;-77
2021/08/29 04:40:49;;;;;;;3.70;3.40;;;15.00;99.90;;;;;;5156397;27;20446;-77
2021/08/29 04:43:16;;;;;;;17.30;13.23;;;15.00;99.90;;;;;;5147865;27;20463;-77
2021/08/29 04:45:42;;;;;;;14.63;11.87;;;15.00;99.90;;;;;;5143933;27;20507;-77
2021/08/29 04:48:09;;;;;;;15.77;12.30;;;15.00;99.90;;;;;;5140945;27;20501;-79
2021/08/29 04:50:38;;;;;;;8.97;8.17;;;15.00;99.90;;;;;;5140662;27;20447;-79
2021/08/29 04:53:05;;;;;;;12.43;10.57;;;15.00;99.90;;;;;;5141054;27;20515;-79
2021/08/29 04:55:33;;;;;;;9.83;8.80;;;15.00;99.90;;;;;;5139766;27;20921;-79
2021/08/29 04:57:59;;;;;;;7.90;6.80;;;15.00;99.90;;;;;;5138874;27;20468;-78
2021/08/29 05:00:26;;;;;;;4.73;4.27;;;15.00;99.90;;;;;;5139173;27;20442;-78
2021/08/29 05:02:53;;;;;;;4.87;3.60;;;15.00;99.90;;;;;;5138638;27;20491;-78
2021/08/29 05:05:19;;;;;;;4.43;3.20;;;15.00;99.90;;;;;;5139867;27;20499;-77
2021/08/29 05:07:46;;;;;;;4.33;3.43;;;15.00;99.90;;;;;;5139287;27;20474;-79
2021/08/29 05:10:12;;;;;;;4.30;3.77;;;15.00;99.90;;;;;;5138849;27;20482;-77
2021/08/29 05:12:40;;;;;;;4.20;3.80;;;15.00;99.90;;;;;;5139325;27;20478;-77
2021/08/29 05:15:08;;;;;;;3.40;3.10;;;15.00;99.90;;;;;;5139895;27;20470;-77
2021/08/29 05:17:34;;;;;;;4.07;3.67;;;15.00;99.90;;;;;;5139518;27;20486;-77
2021/08/29 05:20:01;;;;;;;14.03;10.90;;;15.00;99.90;;;;;;5138799;27;20450;-77
2021/08/29 05:22:27;;;;;;;17.17;12.97;;;14.90;99.90;;;;;;5138900;27;20512;-77
2021/08/29 05:24:54;;;;;;;14.53;12.80;;;14.90;99.90;;;;;;5138974;27;20474;-77
2021/08/29 05:27:20;;;;;;;21.80;14.80;;;14.90;99.90;;;;;;5138997;27;20546;-78
2021/08/29 05:29:48;;;;;;;17.07;15.27;;;14.90;99.90;;;;;;5138313;27;20883;-77
2021/08/29 05:32:15;;;;;;;15.93;13.20;;;14.90;99.90;;;;;;5138188;27;20524;-78
2021/08/29 05:34:41;;;;;;;17.80;14.63;;;14.90;99.90;;;;;;5138212;27;20443;-78
2021/08/29 05:37:08;;;;;;;17.10;14.03;;;14.90;99.90;;;;;;5138264;27;20485;-77
2021/08/29 05:39:34;;;;;;;17.07;13.63;;;14.90;99.90;;;;;;5138315;27;20468;-77
2021/08/29 05:42:01;;;;;;;15.20;11.80;;;14.90;99.90;;;;;;5138528;27;20513;-78
2021/08/29 05:44:28;;;;;;;13.27;11.40;;;15.00;99.90;;;;;;5138535;27;21001;-79
2021/08/29 05:46:55;;;;;;;14.50;10.67;;;15.00;99.90;;;;;;5138118;27;20442;-78
2021/08/29 05:49:22;;;;;;;11.77;10.27;;;14.90;99.90;;;;;;5138234;27;20569;-78
2021/08/29 05:51:49;;;;;;;10.77;8.87;;;14.90;99.90;;;;;;5139056;27;20829;-79
2021/08/29 05:54:17;;;;;;;14.03;9.50;;;14.90;99.90;;;;;;5138197;27;20484;-78
2021/08/29 05:56:43;;;;;;;11.30;8.30;;;14.90;99.90;;;;;;5137738;27;20473;-78
2021/08/29 05:59:10;;;;;;;14.47;10.80;;;14.90;99.90;;;;;;5137871;27;20438;-78
2021/08/29 06:01:36;;;;;;;11.93;9.00;;;14.90;99.90;;;;;;5138110;27;20467;-78
2021/08/29 06:04:05;;;;;;;10.40;8.40;;;14.90;99.90;;;;;;5138476;27;20856;-78
2021/08/29 06:06:33;;;;;;;11.53;10.03;;;14.90;99.90;;;;;;5137855;27;20982;-78
2021/08/29 06:09:00;;;;;;;12.33;8.83;;;15.00;99.90;;;;;;5136337;27;20491;-78
2021/08/29 06:11:26;;;;;;;13.97;10.90;;;;;;;;;;5137305;27;20450;-78
2021/08/29 06:13:53;;;;;;;12.13;9.60;;;15.00;99.90;;;;;;5136068;27;20455;-78
2021/08/29 06:16:20;;;;;;;13.03;9.23;;;15.00;99.90;;;;;;5136471;27;20442;-78
2021/08/29 06:18:46;;;;;;;13.73;10.60;;;15.00;99.90;;;;;;5136346;27;20530;-78
2021/08/29 06:21:14;;;;;;;13.83;11.90;;;14.90;99.90;;;;;;5138167;27;20474;-78
2021/08/29 06:23:40;;;;;;;16.63;12.67;;;15.00;99.90;;;;;;5139502;27;20489;-78
2021/08/29 06:26:07;;;;;;;14.10;10.50;;;15.00;99.90;;;;;;5140796;27;20499;-78
2021/08/29 06:28:34;;;;;;;15.70;10.07;;;14.90;99.90;;;;;;5142950;27;20474;-78
2021/08/29 06:31:00;;;;;;;13.23;9.93;;;14.90;99.90;;;;;;5142317;27;20478;-78
2021/08/29 06:33:27;;;;;;;13.77;8.50;;;14.90;99.90;;;;;;5140477;27;20520;-78
2021/08/29 06:35:55;;;;;;;12.90;8.73;;;14.90;99.90;;;;;;5141141;27;20454;-78
2021/08/29 06:38:23;;;;;;;9.87;8.13;;;14.90;99.90;;;;;;5139557;28;20439;-79
2021/08/29 06:40:49;;;;;;;13.20;8.60;;;14.90;99.90;;;;;;5137351;28;20477;-78
2021/08/29 06:43:16;;;;;;;9.60;8.33;;;14.90;99.90;;;;;;5137947;28;20490;-78
2021/08/29 06:45:43;;;;;;;9.53;6.83;;;14.80;99.90;;;;;;5139594;28;20446;-79
2021/08/29 06:48:09;;;;;;;12.63;7.37;;;14.80;99.90;;;;;;5140286;28;20438;-78
2021/08/29 06:50:36;;;;;;;10.93;7.27;;;14.80;99.90;;;;;;5139837;28;20500;-78
2021/08/29 06:53:02;;;;;;;8.83;6.50;;;14.80;99.90;;;;;;5140273;28;20458;-80
2021/08/29 06:55:31;;;;;;;8.47;7.10;;;14.80;99.90;;;;;;5141824;28;20447;-79
2021/08/29 06:57:58;;;;;;;7.70;6.60;;;14.80;99.90;;;;;;5141671;28;20494;-79
2021/08/29 07:00:24;;;;;;;8.00;5.63;;;14.90;99.90;;;;;;5141828;28;20858;-79
2021/08/29 07:02:51;;;;;;;9.17;6.60;;;14.90;99.90;;;;;;5141128;28;20498;-80
2021/08/29 07:05:17;;;;;;;8.90;6.50;;;14.90;99.90;;;;;;5142046;28;20972;-79
2021/08/29 07:07:44;;;;;;;7.70;6.23;;;14.90;99.90;;;;;;5142522;28;20468;-80
2021/08/29 07:10:14;;;;;;;6.57;5.80;;;14.70;99.90;;;;;;5143682;28;20489;-80
2021/08/29 07:12:42;;;;;;;6.83;5.60;;;14.80;99.90;;;;;;5142297;28;20471;-80
2021/08/29 07:15:09;;;;;;;7.37;5.37;;;14.80;99.90;;;;;;5142856;28;20443;-80
2021/08/29 07:17:35;;;;;;;6.90;4.80;;;14.80;99.90;;;;;;5139524;28;20900;-79
2021/08/29 07:20:02;;;;;;;7.13;4.93;;;14.80;99.90;;;;;;5137585;28;20960;-79
2021/08/29 07:22:28;;;;;;;6.10;5.20;;;14.80;99.90;;;;;;5137984;28;20466;-79
2021/08/29 07:24:55;;;;;;;10.07;6.27;;;14.80;99.90;;;;;;5138807;28;20479;-79
2021/08/29 07:27:21;;;;;;;7.87;5.43;;;14.80;99.90;;;;;;5137482;28;20533;-79
2021/08/29 07:29:49;;;;;;;5.80;4.53;;;14.80;99.90;;;;;;5136894;28;20517;-78
2021/08/29 07:32:16;;;;;;;6.43;4.67;;;14.80;99.90;;;;;;5137191;28;20467;-78
2021/08/29 07:34:43;;;;;;;5.57;4.80;;;14.70;99.90;;;;;;5137101;28;20499;-78
2021/08/29 07:37:09;;;;;;;6.07;5.47;;;14.70;99.90;;;;;;5136078;28;20526;-78
2021/08/29 07:39:36;;;;;;;11.23;5.83;;;14.70;99.90;;;;;;5136354;28;20470;-78
2021/08/29 07:42:03;;;;;;;7.73;5.20;;;14.80;99.90;;;;;;5137998;28;20466;-79
2021/08/29 07:44:29;;;;;;;5.23;4.73;;;14.80;99.90;;;;;;5138875;28;20499;-78
2021/08/29 07:46:57;;;;;;;6.57;5.20;;;14.80;99.90;;;;;;5139592;27;20487;-78
2021/08/29 07:49:24;;;;;;;9.07;4.40;;;14.80;99.90;;;;;;5140931;27;20510;-79
2021/08/29 07:51:50;;;;;;;5.70;4.60;;;14.80;99.90;;;;;;5141516;27;20490;-79
2021/08/29 07:54:17;;;;;;;5.10;4.60;;;14.80;99.90;;;;;;5141229;27;20495;-79
2021/08/29 07:56:44;;;;;;;5.07;3.90;;;14.80;99.90;;;;;;5140832;27;20462;-78
2021/08/29 07:59:10;;;;;;;4.83;4.27;;;14.70;99.90;;;;;;5140522;27;20473;-79
2021/08/29 08:01:39;;;;;;;5.50;5.00;;;14.80;99.90;;;;;;5140339;27;20501;-78
2021/08/29 08:04:07;;;;;;;4.40;4.00;;;14.70;99.90;;;;;;5143344;27;20457;-79
2021/08/29 08:06:34;;;;;;;5.63;4.70;;;14.50;99.90;;;;;;5147396;27;20929;-81
2021/08/29 08:09:01;;;;;;;6.90;4.80;;;14.80;99.90;;;;;;5149147;27;20478;-81
2021/08/29 08:11:27;;;;;;;7.53;4.63;;;14.80;99.90;;;;;;5151253;27;20434;-80
2021/08/29 08:13:54;;;;;;;6.20;5.37;;;14.70;99.90;;;;;;5157025;27;20431;-80
2021/08/29 08:16:21;;;;;;;10.87;5.20;;;14.80;99.90;;;;;;5157187;27;20439;-81
2021/08/29 08:18:48;;;;;;;6.30;4.60;;;14.80;99.90;;;;;;5156964;27;20474;-81
2021/08/29 08:21:16;;;;;;;6.27;4.63;;;14.80;99.90;;;;;;5153410;27;20472;-80
2021/08/29 08:23:46;;;;;;;5.43;4.73;;;14.80;99.90;;;;;;5159782;27;20430;-80
2021/08/29 08:26:12;;;;;;;8.30;4.70;;;14.90;99.90;;;;;;5156948;27;20435;-79
2021/08/29 08:28:39;;;;;;;7.10;5.00;;;14.90;99.90;;;;;;5157449;27;20788;-80
2021/08/29 08:31:06;;;;;;;7.80;6.27;;;15.00;99.90;;;;;;5158525;27;20439;-79
2021/08/29 08:33:32;;;;;;;6.13;5.20;;;15.10;99.90;;;;;;5158589;27;20458;-80
2021/08/29 08:35:59;;;;;;;4.87;4.40;;;15.10;99.90;;;;;;5154380;27;20469;-79
2021/08/29 08:38:27;;;;;;;5.10;4.60;;;15.10;99.90;;;;;;5152338;27;20439;-80
2021/08/29 08:40:54;;;;;;;5.93;5.00;;;15.10;99.90;;;;;;5151725;27;20467;-80
2021/08/29 08:43:21;;;;;;;5.30;4.60;;;15.10;99.90;;;;;;5151645;27;20459;-80
2021/08/29 08:45:48;;;;;;;4.27;3.87;;;15.20;99.90;;;;;;5143615;27;20468;-81
2021/08/29 08:48:16;;;;;;;4.10;3.77;;;15.20;99.90;;;;;;5141626;27;20469;-81
2021/08/29 08:50:47;;;;;;;5.60;3.67;;;15.30;99.90;;;;;;5142057;27;20534;-81
2021/08/29 08:53:17;;;;;;;4.23;3.83;;;15.30;99.90;;;;;;5141523;27;20473;-80
2021/08/29 08:55:47;;;;;;;6.10;4.20;;;15.40;99.90;;;;;;5142445;27;20464;-80
2021/08/29 08:58:16;;;;;;;4.10;3.70;;;15.40;99.90;;;;;;5143246;27;20517;-80
2021/08/29 09:00:45;;;;;;;5.40;4.53;;;15.40;99.90;;;;;;5142838;27;20960;-80
2021/08/29 09:03:12;;;;;;;3.50;3.20;;;15.40;99.90;;;;;;5143928;27;20469;-80
2021/08/29 09:05:39;;;;;;;3.30;3.00;;;15.50;99.90;;;;;;5144135;27;20447;-81
2021/08/29 09:08:07;;;;;;;4.07;3.67;;;15.60;99.90;;;;;;5149434;27;20472;-80
2021/08/29 09:10:34;;;;;;;3.77;3.40;;;15.60;99.90;;;;;;5156303;27;20485;-79
2021/08/29 09:13:07;;;;;;;4.47;3.43;;;15.60;99.90;;;;;;5157111;22;20532;-82
2021/08/29 09:15:37;;;;;;;3.33;3.03;;;15.60;99.90;;;;;;5119458;28;20448;-83
2021/08/29 09:18:14;;;;;;;2.90;2.70;;;15.80;99.90;;;;;;5119385;28;20448;-83
2021/08/29 09:20:48;;;;;;;2.80;2.60;;;16.10;99.90;;;;;;5119141;28;20450;-83
2021/08/29 09:23:19;;;;;;;3.50;3.20;;;15.80;99.90;;;;;;5132499;27;20502;-83
2021/08/29 09:25:47;;;;;;;3.97;3.67;;;15.80;99.90;;;;;;5139941;27;20445;-81
2021/08/29 09:28:16;;;;;;;3.50;3.20;;;15.90;99.90;;;;;;5138332;27;20461;-84
2021/08/29 09:30:47;;;;;;;4.63;4.23;;;15.80;99.90;;;;;;5138218;27;20535;-82
2021/08/29 09:33:23;;;;;;;2.97;2.67;;;15.90;99.90;;;;;;5139580;27;20491;-81
2021/08/29 09:35:54;;;;;;;2.50;2.30;;;15.80;99.90;;;;;;5139460;27;20431;-84
2021/08/29 09:38:27;;;;;;;4.37;3.03;;;15.80;99.90;;;;;;5138678;27;20844;-82
2021/08/29 09:40:54;;;;;;;2.50;2.30;;;;;;;;;;5140077;27;20426;-83
2021/08/29 09:43:35;;;;;;;2.50;2.30;;;16.00;99.90;;;;;;5137761;27;20494;-82
2021/08/29 09:46:07;;;;;;;2.67;2.47;;;16.00;99.90;;;;;;5138785;27;20422;-80
2021/08/29 09:48:33;;;;;;;2.57;2.10;;;15.90;99.90;;;;;;5149333;27;20441;-80
2021/08/29 09:51:00;;;;;;;3.47;3.00;;;15.90;99.90;;;;;;5143456;27;20983;-82
2021/08/29 09:53:27;;;;;;;3.20;2.90;;;15.90;99.90;;;;;;5137752;27;20516;-82
2021/08/29 09:55:54;;;;;;;3.30;2.60;;;15.90;99.90;;;;;;5140417;27;20443;-82
2021/08/29 09:58:24;;;;;;;3.17;2.10;;;15.90;99.90;;;;;;5151212;27;20446;-81
2021/08/29 10:01:08;;;;;;;1.73;1.53;;;16.00;99.90;;;;;;5145435;27;20447;-81
2021/08/29 10:03:36;;;;;;;9.37;7.90;;;16.30;99.90;;;;;;5141829;27;20470;-82
2021/08/29 10:06:17;;;;;;;3.43;2.47;;;16.50;99.90;;;;;;5152245;27;20442;-80
2021/08/29 10:08:46;;;;;;;1.80;1.70;;;16.40;99.90;;;;;;5147456;27;20443;-83
2021/08/29 10:11:14;;;;;;;3.03;2.53;;;16.60;99.90;;;;;;5139697;27;21052;-84
2021/08/29 10:13:45;;;;;;;2.93;2.73;;;16.30;99.90;;;;;;5139497;27;20495;-82
2021/08/29 10:16:13;;;;;;;2.00;1.90;;;16.60;99.90;;;;;;5140112;27;20431;-84
2021/08/29 10:18:41;;;;;;;3.07;2.30;;;16.70;99.90;;;;;;5139767;27;20495;-82
2021/08/29 10:21:10;;;;;;;2.37;2.17;;;16.40;99.90;;;;;;5138559;27;20437;-82
2021/08/29 10:23:39;;;;;;;3.53;2.90;;;16.40;99.90;;;;;;5139754;27;20481;-82
2021/08/29 10:26:08;;;;;;;3.13;2.67;;;16.60;99.90;;;;;;5142765;27;20454;-82
2021/08/29 10:28:51;;;;;;;3.50;3.20;;;16.60;99.90;;;;;;5139153;27;20503;-82
2021/08/29 10:31:20;;;;;;;2.43;2.23;;;16.60;99.90;;;;;;5139493;27;20466;-82
2021/08/29 10:33:49;;;;;;;2.67;2.47;;;16.60;99.90;;;;;;5139023;27;20462;-82
2021/08/29 10:36:17;;;;;;;2.40;2.20;;;16.60;99.90;;;;;;5139452;28;20446;-82
2021/08/29 10:38:48;;;;;;;2.60;2.40;;;16.60;99.90;;;;;;5138783;28;20451;-83
2021/08/29 10:41:20;;;;;;;1.80;1.70;;;16.60;99.90;;;;;;5138361;28;20472;-81
2021/08/29 10:43:49;;;;;;;2.33;2.13;;;16.70;99.90;;;;;;5138469;28;20500;-81
2021/08/29 10:46:17;;;;;;;3.30;2.80;;;16.70;99.90;;;;;;5140232;28;20945;-79
2021/08/29 10:48:51;;;;;;;1.47;1.27;;;16.70;99.90;;;;;;5138185;28;20470;-83
2021/08/29 10:51:24;;;;;;;1.77;1.60;;;16.80;99.90;;;;;;5148224;28;20469;-80
2021/08/29 10:53:53;;;;;;;2.37;2.17;;;16.90;99.90;;;;;;5153496;28;20949;-82
2021/08/29 10:56:33;;;;;;;1.70;1.60;;;16.90;99.90;;;;;;5152136;28;20470;-83
2021/08/29 10:59:21;;;;;;;1.50;1.40;;;16.90;99.90;;;;;;5140279;28;20490;-84
2021/08/29 11:01:49;;;;;;;1.30;1.20;;;16.90;99.90;;;;;;5137953;28;20442;-80
2021/08/29 11:04:47;;;;;;;1.63;1.53;;;17.10;99.90;;;;;;5137847;28;20821;-81
2021/08/29 11:07:38;;;;;;;1.50;1.40;;;16.90;99.90;;;;;;5138531;28;20435;-81
2021/08/29 11:10:06;;;;;;;2.80;1.77;;;17.00;99.90;;;;;;5137739;28;20466;-82
2021/08/29 11:12:34;;;;;;;1.20;1.10;;;17.10;99.90;;;;;;5137558;28;20470;-81
2021/08/29 11:15:04;;;;;;;1.50;1.13;;;17.10;99.90;;;;;;5139359;28;20492;-82
2021/08/29 11:17:33;;;;;;;1.50;1.40;;;17.30;99.90;;;;;;5139808;28;20423;-82
2021/08/29 11:20:17;;;;;;;1.60;1.50;;;17.50;99.90;;;;;;5137896;28;20503;-82
2021/08/29 11:22:45;;;;;;;1.97;1.70;;;17.80;99.90;;;;;;5140833;27;20470;-81
2021/08/29 11:25:18;;;;;;;2.30;1.30;;;18.30;99.90;;;;;;5142639;27;20446;-82
2021/08/29 11:27:51;;;;;;;0.90;0.90;;;18.00;99.90;;;;;;5141693;27;20499;-81
2021/08/29 11:30:21;;;;;;;1.63;1.53;;;18.00;99.90;;;;;;5141549;27;20463;-81
2021/08/29 11:32:56;;;;;;;3.60;2.40;;;17.80;99.90;;;;;;5140869;27;20467;-81
2021/08/29 11:35:27;;;;;;;2.57;2.37;;;17.90;99.90;;;;;;5141285;27;20463;-81
2021/08/29 11:38:07;;;;;;;1.90;1.80;;;18.00;99.90;;;;;;5141365;27;20497;-81
2021/08/29 11:40:59;;;;;;;2.30;1.90;;;18.00;99.90;;;;;;5144420;27;20423;-82
2021/08/29 11:43:40;;;;;;;1.53;1.43;;;18.10;99.90;;;;;;5141824;27;20811;-82
2021/08/29 11:46:19;;;;;;;1.30;1.20;;;18.20;99.90;;;;;;5147443;27;20426;-82
2021/08/29 11:48:53;;;;;;;1.50;1.37;;;18.20;99.90;;;;;;5150723;27;20450;-82
2021/08/29 11:51:34;;;;;;;1.40;1.30;;;18.30;99.90;;;;;;5142978;27;20474;-82
2021/08/29 11:54:15;;;;;;;2.00;1.80;;;18.60;99.90;;;;;;5149189;22;20498;-82
2021/08/29 11:56:49;;;;;;;1.77;1.50;;;18.70;99.90;;;;;;5144333;27;20418;-84
2021/08/29 11:59:27;;;;;;;1.37;1.27;;;18.70;99.90;;;;;;5146462;27;20463;-82
2021/08/29 12:01:56;;;;;;;1.50;1.20;;;18.90;99.90;;;;;;5144252;27;20442;-83
2021/08/29 12:04:28;;;;;;;2.30;2.10;;;18.80;99.90;;;;;;5142467;27;20439;-83
2021/08/29 12:07:05;;;;;;;1.37;1.13;;;18.90;99.90;;;;;;5142215;27;20960;-84
2021/08/29 12:09:36;;;;;;;1.80;1.70;;;18.90;99.90;;;;;;5142044;27;20431;-80
2021/08/29 12:12:49;;;;;;;1.90;1.80;;;18.90;99.90;;;;;;5146531;22;20854;-81
2021/08/29 12:15:16;;;;;;;1.50;1.40;;;19.00;99.90;;;;;;5121046;27;20883;-81
2021/08/29 12:28:18;;;;;;;2.17;1.13;;;18.00;99.90;;;;;;4937281;28;20489;-80
2021/08/29 12:30:52;;;;;;;3.20;2.90;;;18.20;99.90;;;;;;5119855;28;20517;-80
2021/08/29 12:33:19;;;;;;;1.70;1.60;;;18.20;99.90;;;;;;5118804;28;20524;-80
2021/08/29 12:35:47;;;;;;;4.70;1.60;;;18.30;99.90;;;;;;5119043;28;20447;-80
2021/08/29 12:38:18;;;;;;;2.00;1.47;;;18.30;99.90;;;;;;5119541;28;20448;-80
2021/08/29 12:40:45;;;;;;;1.30;1.20;;;18.30;99.90;;;;;;5120115;28;20439;-79
2021/08/29 12:43:12;;;;;;;1.40;1.30;;;18.30;99.90;;;;;;5119934;28;20463;-80
2021/08/29 12:45:40;;;;;;;3.50;2.10;;;18.40;99.90;;;;;;5119470;28;20443;-79
2021/08/29 12:48:07;;;;;;;1.40;1.30;;;18.40;99.90;;;;;;5119904;28;20504;-79
2021/08/29 12:50:41;;;;;;;1.70;1.57;;;18.60;99.90;;;;;;5119491;28;20485;-80
2021/08/29 12:53:10;;;;;;;2.23;2.03;;;18.40;99.90;;;;;;5119076;28;20784;-79
2021/08/29 12:55:37;;;;;;;2.03;1.93;;;18.40;99.90;;;;;;5119233;28;20516;-81
2021/08/29 12:58:07;;;;;;;2.60;2.27;;;18.50;99.90;;;;;;5119488;28;20439;-79
2021/08/29 13:00:38;;;;;;;1.33;1.23;;;18.50;99.90;;;;;;5119577;28;20987;-80
2021/08/29 13:03:07;;;;;;;1.43;1.33;;;18.60;99.90;;;;;;5119427;28;20459;-79
2021/08/29 13:05:38;;;;;;;1.67;1.57;;;18.60;99.90;;;;;;5119718;28;20444;-80